Time;durP1;ratioP1;P1;durP2;ratioP2;P2;SDS_P1;SDS_P2;PMS_P1;PMS_P2;Temp;Humidity;BMP_temperature;BMP_pressure;BME280_temperature;BME280_humidity;BME280_pressure;Samples;Min_cycle;Max_cycle;Signal;HPM_P1;HPM_P2
2022/08/22 00:00:08;;;;;;;4.50;2.67;;;;;;;19.11;65.40;93203.59;4953551;28;20045;-81
2022/08/22 00:02:38;;;;;;;5.90;2.90;;;;;;;18.86;65.28;93145.03;4967336;28;20064;-83
2022/08/22 00:05:32;;;;;;;3.55;2.53;;;;;;;19.67;64.68;93249.56;4969117;28;20045;-85
2022/08/22 00:08:27;;;;;;;4.57;2.95;;;;;;;19.64;65.09;93255.75;4968454;28;20064;-82
2022/08/22 00:11:03;;;;;;;2.73;2.40;;;;;;;19.21;64.63;93200.16;4953494;28;20466;-84
2022/08/22 00:13:32;;;;;;;3.10;2.50;;;;;;;19.60;64.42;93252.25;4951441;28;20129;-82
2022/08/22 00:16:08;;;;;;;5.20;2.72;;;;;;;19.64;63.82;93253.06;4971227;28;20041;-82
2022/08/22 00:18:46;;;;;;;4.68;2.85;;;;;;;19.52;64.02;93258.03;4951375;28;20030;-81
2022/08/22 00:21:49;;;;;;;4.00;3.20;;;;;;;19.40;64.33;93253.75;4966963;28;20927;-81
2022/08/22 00:24:23;;;;;;;4.47;3.40;;;;;;;19.10;65.06;93242.47;4969685;28;20042;-82
2022/08/22 00:27:25;;;;;;;6.35;4.22;;;;;;;18.54;65.98;93189.88;4968745;28;20876;-81
2022/08/22 00:30:02;;;;;;;11.23;4.60;;;;;;;18.41;66.45;93167.91;4961142;28;20089;-81
2022/08/22 00:32:34;;;;;;;9.25;5.50;;;;;;;19.02;66.47;93251.69;4952745;28;20069;-81
2022/08/22 00:35:22;;;;;;;12.80;6.60;;;;;;;18.87;67.19;93251.63;4968652;28;20503;-82
2022/08/22 00:37:57;;;;;;;8.48;5.40;;;;;;;18.82;66.89;93241.19;4953456;28;20060;-80
2022/08/22 00:40:44;;;;;;;10.60;5.95;;;;;;;18.82;67.38;93251.22;4968686;28;20063;-81
2022/08/22 00:43:12;;;;;;;7.60;5.95;;;;;;;18.61;67.77;93224.94;4952665;28;20074;-83
2022/08/22 00:46:00;;;;;;;10.85;7.15;;;;;;;18.66;68.28;93242.66;4969578;28;20042;-84
2022/08/22 00:48:54;;;;;;;9.45;6.38;;;;;;;18.59;68.67;93238.00;4966245;28;20384;-81
2022/08/22 00:51:48;;;;;;;9.83;6.43;;;;;;;18.35;69.54;93233.22;4969678;28;20050;-81
2022/08/22 00:54:41;;;;;;;9.93;6.65;;;;;;;18.39;69.53;93225.94;4969891;28;20047;-82
2022/08/22 00:57:18;;;;;;;11.40;6.82;;;;;;;18.26;69.79;93213.97;4948297;28;20095;-82
2022/08/22 01:00:12;;;;;;;10.65;7.22;;;;;;;18.27;69.10;93167.84;4971597;28;20478;-82
2022/08/22 01:03:11;;;;;;;9.75;5.90;;;;;;;18.84;68.31;93230.84;4970159;28;20042;-81
2022/08/22 01:06:07;;;;;;;8.70;6.20;;;;;;;19.04;67.64;93235.91;4968153;28;20042;-84
2022/08/22 01:08:33;;;;;;;9.70;6.78;;;;;;;19.20;67.23;93228.28;4970685;28;20035;-82
2022/08/22 01:11:39;;;;;;;8.85;6.55;;;;;;;19.14;66.63;93213.63;4970503;28;20613;-83
2022/08/22 01:14:16;;;;;;;9.45;6.65;;;;;;;18.99;66.01;93168.91;4969008;28;20042;-81
2022/08/22 01:16:59;;;;;;;11.02;6.90;;;;;;;19.07;65.65;93165.06;4970590;28;20423;-82
2022/08/22 01:20:15;;;;;;;8.10;6.15;;;;;;;19.34;66.38;93225.59;4970414;28;20841;-82
2022/08/22 01:22:55;;;;;;;8.63;6.63;;;;;;;19.48;65.80;93228.34;4970006;28;20053;-82
2022/08/22 01:25:23;;;;;;;9.63;6.75;;;;;;;19.41;65.63;93228.31;4969879;28;20047;-81
2022/08/22 01:28:33;;;;;;;9.77;6.75;;;;;;;19.47;65.83;93226.03;4969109;28;20030;-82
2022/08/22 01:31:29;;;;;;;9.65;6.25;;;;;;;19.43;65.87;93227.94;4968652;28;20034;-82
2022/08/22 01:34:06;;;;;;;9.88;6.95;;;;;;;19.53;65.39;93235.28;4967718;28;20061;-81
2022/08/22 01:37:00;;;;;;;8.00;5.60;;;;;;;19.57;65.35;93234.16;4966810;28;20049;-83
2022/08/22 01:39:34;;;;;;;9.98;6.07;;;;;;;19.66;64.97;93236.47;4967007;28;20042;-84
2022/08/22 01:42:33;;;;;;;7.88;5.38;;;;;;;19.68;64.85;93243.03;4970170;28;20019;-81
2022/08/22 01:45:21;;;;;;;7.68;5.30;;;;;;;19.66;64.63;93231.84;4956401;28;20054;-83
2022/08/22 01:47:54;;;;;;;8.40;5.93;;;;;;;19.45;64.32;93206.78;4968961;28;20423;-81
2022/08/22 01:50:40;;;;;;;8.20;6.30;;;;;;;18.75;64.17;93108.44;4953035;28;20034;-81
2022/08/22 01:53:21;;;;;;;9.27;5.65;;;;;;;18.00;64.02;92988.94;4968538;28;20042;-84
2022/08/22 01:56:04;;;;;;;10.30;5.28;;;;;;;19.68;63.82;93228.78;4958134;28;20035;-82
2022/08/22 01:58:33;;;;;;;10.05;5.22;;;;;;;19.01;63.55;93131.59;4971337;28;20045;-81
2022/08/22 02:01:24;;;;;;;9.43;5.85;;;;;;;19.70;63.50;93235.31;4973462;28;20519;-83
2022/08/22 02:04:03;;;;;;;6.65;4.90;;;;;;;19.68;63.45;93236.84;4956890;28;20118;-83
2022/08/22 02:06:50;;;;;;;7.35;5.50;;;;;;;19.65;63.08;93232.25;4958362;28;20125;-81
2022/08/22 02:09:42;;;;;;;6.63;4.85;;;;;;;19.61;62.92;93231.44;4972704;28;20526;-81
2022/08/22 02:12:10;;;;;;;10.77;5.10;;;;;;;19.57;62.93;93236.84;4970988;28;20070;-81
2022/08/22 02:14:35;;;;;;;11.75;6.65;;;;;;;19.56;63.03;93229.91;4972992;28;20033;-81
2022/08/22 02:17:51;;;;;;;7.85;5.70;;;;;;;19.48;63.11;93236.44;4971400;28;20034;-81
2022/08/22 02:20:21;;;;;;;10.23;6.38;;;;;;;19.48;63.12;93238.38;4897735;29;20051;-83
2022/08/22 02:23:05;;;;;;;9.88;6.15;;;;;;;18.99;63.39;93182.38;4910797;29;20119;-83
2022/08/22 02:26:01;;;;;;;10.10;6.97;;;;;;;18.86;63.41;93155.03;4954991;28;20045;-83
2022/08/22 02:29:10;;;;;;;8.93;5.93;;;;;;;19.04;62.99;93171.22;4973640;28;20500;-81
2022/08/22 02:31:43;;;;;;;12.10;6.13;;;;;;;19.42;63.05;93231.78;4965121;28;20133;-82
2022/08/22 02:34:30;;;;;;;9.98;6.00;;;;;;;19.41;62.64;93233.69;4951664;28;20092;-84
2022/08/22 02:37:11;;;;;;;10.23;5.82;;;;;;;18.47;62.92;93101.00;4953093;28;20055;-82
2022/08/22 02:39:51;;;;;;;8.00;5.97;;;;;;;19.29;62.63;93231.38;4955167;28;20050;-82
2022/08/22 02:42:27;;;;;;;8.25;5.78;;;;;;;19.33;62.77;93237.53;4951309;28;20135;-82
2022/08/22 02:45:19;;;;;;;9.88;6.95;;;;;;;19.10;63.39;93234.41;4941603;28;20037;-82
2022/08/22 02:48:05;;;;;;;8.23;5.60;;;;;;;19.13;63.08;93233.63;4955047;28;20027;-80
2022/08/22 02:50:48;;;;;;;9.77;6.43;;;;;;;19.15;62.97;93236.72;4934221;28;20471;-81
2022/08/22 02:53:45;;;;;;;7.47;5.63;;;;;;;18.70;62.82;93170.72;4934030;28;20423;-82
2022/08/22 02:56:39;;;;;;;8.50;5.60;;;;;;;18.80;62.74;93189.66;4932893;28;20035;-81
2022/08/22 02:59:14;;;;;;;9.93;5.68;;;;;;;18.50;62.79;93143.31;4947139;28;20182;-83
2022/08/22 03:01:45;;;;;;;9.35;5.93;;;;;;;17.22;62.93;92958.19;4953094;28;20034;-85
2022/08/22 03:04:22;;;;;;;8.05;5.82;;;;;;;18.97;63.04;93236.66;4941404;28;20098;-82
2022/08/22 03:07:16;;;;;;;9.90;5.32;;;;;;;18.94;63.04;93240.09;4934775;28;20038;-83
2022/08/22 03:09:54;;;;;;;7.72;5.38;;;;;;;19.03;62.79;93245.13;4934463;28;20054;-84
2022/08/22 03:12:38;;;;;;;6.53;4.70;;;;;;;18.88;62.85;93249.69;4946910;28;20089;-82
2022/08/22 03:15:51;;;;;;;12.18;6.00;;;;;;;17.65;63.11;93075.56;4933180;28;20083;-84
2022/08/22 03:18:24;;;;;;;10.02;5.93;;;;;;;18.86;63.04;93250.09;4908107;28;20043;-81
2022/08/22 03:20:53;;;;;;;8.68;5.85;;;;;;;18.75;63.34;93246.56;4937768;28;20074;-82
2022/08/22 03:23:43;;;;;;;8.00;5.25;;;;;;;18.69;63.84;93268.81;4952448;28;20166;-83
2022/08/22 03:26:17;;;;;;;12.45;5.78;;;;;;;18.72;63.93;93251.94;4937856;28;20074;-82
2022/08/22 03:28:51;;;;;;;11.07;6.03;;;;;;;17.51;64.15;93072.78;4954076;28;20039;-82
2022/08/22 03:31:23;;;;;;;10.02;5.60;;;;;;;18.86;64.13;93254.72;4953166;28;20140;-82
2022/08/22 03:34:22;;;;;;;8.02;5.35;;;;;;;18.89;64.23;93246.63;4961768;28;20045;-85
2022/08/22 03:37:06;;;;;;;8.48;5.97;;;;;;;18.76;64.28;93258.91;4950526;28;20034;-82
2022/08/22 03:39:50;;;;;;;9.32;5.55;;;;;;;18.78;65.09;93250.41;4954275;28;20081;-83
2022/08/22 03:42:34;;;;;;;10.80;6.93;;;;;;;18.63;64.64;93211.84;4968446;28;20065;-83
2022/08/22 03:45:27;;;;;;;8.57;5.93;;;;;;;18.71;65.12;93248.47;4971837;28;20120;-85
2022/08/22 03:47:56;;;;;;;10.48;6.32;;;;;;;18.33;65.18;93205.94;4970419;28;20026;-81
2022/08/22 03:50:41;;;;;;;8.55;5.80;;;;;;;18.87;64.42;93251.63;4954479;28;20034;-82
2022/08/22 03:53:31;;;;;;;8.40;5.63;;;;;;;18.54;64.07;93197.94;4969374;28;20447;-82
2022/08/22 03:56:12;;;;;;;8.63;5.60;;;;;;;18.55;64.07;93186.03;4952087;28;20080;-81
2022/08/22 03:59:15;;;;;;;8.75;5.90;;;;;;;19.00;63.60;93241.28;4969652;28;20042;-82
2022/08/22 04:01:43;;;;;;;11.05;6.60;;;;;;;19.00;63.68;93240.50;4970255;28;20038;-82
2022/08/22 04:04:48;;;;;;;11.82;5.93;;;;;;;19.02;63.63;93240.94;4971952;28;20560;-81
2022/08/22 04:07:13;;;;;;;10.95;6.35;;;;;;;18.63;63.59;93186.84;4960847;28;20181;-82
2022/08/22 04:10:09;;;;;;;7.53;5.55;;;;;;;18.82;63.33;93219.66;4968675;28;20458;-82
2022/08/22 04:13:01;;;;;;;8.85;5.80;;;;;;;18.88;63.02;93234.31;4971130;28;20045;-80
2022/08/22 04:15:45;;;;;;;8.18;5.78;;;;;;;19.00;63.38;93240.50;4971571;28;20050;-84
2022/08/22 04:18:48;;;;;;;7.65;5.55;;;;;;;18.84;63.69;93249.69;4969632;28;20503;-81
2022/08/22 04:21:46;;;;;;;10.13;6.05;;;;;;;18.86;63.95;93246.63;4971094;28;20059;-81
2022/08/22 04:24:38;;;;;;;8.77;5.70;;;;;;;18.82;64.74;93241.19;4947087;28;20049;-81
2022/08/22 04:27:20;;;;;;;9.88;5.97;;;;;;;18.57;65.50;93251.06;4970568;28;20026;-83
2022/08/22 04:29:57;;;;;;;11.93;6.78;;;;;;;18.68;65.99;93254.56;4968866;28;20029;-81
2022/08/22 04:32:34;;;;;;;12.05;6.80;;;;;;;18.72;65.90;93258.13;4969110;28;20645;-80
2022/08/22 04:35:18;;;;;;;11.75;6.90;;;;;;;18.71;66.16;93256.56;4970816;28;20069;-82
2022/08/22 04:38:11;;;;;;;11.23;7.13;;;;;;;18.78;66.28;93253.88;4952581;28;20033;-85
2022/08/22 04:40:46;;;;;;;12.07;7.70;;;;;;;18.51;66.98;93225.66;4970148;28;20739;-82
2022/08/22 04:43:28;;;;;;;;;;;;;;;18.74;67.30;93258.50;4969874;28;20519;-83
2022/08/22 04:46:07;;;;;;;12.55;6.95;;;;;;;18.44;67.64;93220.22;4959149;28;19915;-83
2022/08/22 04:48:42;;;;;;;11.32;7.25;;;;;;;18.22;68.12;93208.56;4950730;28;20039;-81
2022/08/22 04:51:21;;;;;;;11.50;6.95;;;;;;;18.14;67.83;93206.22;4949903;28;20490;-83
2022/08/22 04:54:08;;;;;;;9.63;7.72;;;;;;;18.34;68.02;93210.16;4935834;28;20093;-82
2022/08/22 04:57:01;;;;;;;9.38;7.40;;;;;;;18.60;68.22;93266.47;4960945;28;20042;-81
2022/08/22 04:59:29;;;;;;;9.40;6.57;;;;;;;18.32;69.17;93269.00;4968487;28;20039;-83
2022/08/22 05:02:07;;;;;;;10.27;7.25;;;;;;;17.91;68.79;93184.88;4969093;28;20118;-80
2022/08/22 05:04:46;;;;;;;10.90;6.72;;;;;;;18.40;68.94;93270.56;4970548;28;20046;-82
2022/08/22 05:07:28;;;;;;;12.00;7.47;;;;;;;18.44;68.83;93261.38;4969549;28;20038;-82
2022/08/22 05:10:04;;;;;;;10.90;6.53;;;;;;;17.63;70.21;93193.50;4968707;28;20039;-81
2022/08/22 05:12:34;;;;;;;10.45;7.43;;;;;;;18.11;69.90;93231.16;4966758;28;20062;-83
2022/08/22 05:15:44;;;;;;;10.68;7.30;;;;;;;18.63;69.07;93281.88;4966306;28;20117;-81
2022/08/22 05:18:26;;;;;;;12.52;7.20;;;;;;;18.24;69.93;93280.84;4935902;28;20041;-81
2022/08/22 05:20:54;;;;;;;10.73;7.65;;;;;;;18.21;69.54;93235.84;4950132;28;20046;-84
2022/08/22 05:23:43;;;;;;;13.57;7.63;;;;;;;17.62;70.37;93200.00;4951230;28;20133;-81
2022/08/22 05:26:12;;;;;;;14.43;6.93;;;;;;;18.40;70.06;93294.81;4946609;28;20385;-81
2022/08/22 05:28:42;;;;;;;10.05;6.65;;;;;;;18.53;69.34;93298.72;4967383;28;20035;-81
2022/08/22 05:31:12;;;;;;;12.35;7.95;;;;;;;18.20;70.39;93296.97;4966236;28;20074;-82
2022/08/22 05:33:46;;;;;;;12.63;6.93;;;;;;;18.07;70.80;93292.25;4955469;28;20117;-83
2022/08/22 05:36:18;;;;;;;11.75;7.03;;;;;;;18.00;70.65;93266.06;4970797;28;20080;-82
2022/08/22 05:38:50;;;;;;;13.65;7.05;;;;;;;18.06;70.61;93296.84;4953638;28;20034;-82
2022/08/22 05:41:23;;;;;;;10.60;6.47;;;;;;;18.24;70.69;93307.75;4962599;28;20108;-83
2022/08/22 05:43:49;;;;;;;11.40;6.70;;;;;;;18.48;70.14;93307.16;4959880;28;20038;-82
2022/08/22 05:46:21;;;;;;;13.07;7.70;;;;;;;18.00;70.46;93260.66;4970654;28;20071;-82
2022/08/22 05:49:02;;;;;;;14.23;7.65;;;;;;;17.75;70.72;93249.66;4971420;28;20146;-82
2022/08/22 05:51:41;;;;;;;11.80;7.10;;;;;;;17.97;70.90;93266.81;4955675;28;20384;-82
2022/08/22 05:54:18;;;;;;;11.98;7.82;;;;;;;18.37;69.76;93290.19;4962272;28;20425;-83
2022/08/22 05:56:53;;;;;;;11.95;7.38;;;;;;;18.71;69.51;93331.97;4973606;28;20660;-84
2022/08/22 05:59:22;;;;;;;12.45;7.82;;;;;;;18.80;69.10;93329.72;4971897;28;20085;-81
2022/08/22 06:01:56;;;;;;;11.93;7.78;;;;;;;18.95;68.91;93329.81;4974019;28;20084;-82
2022/08/22 06:04:44;;;;;;;12.07;7.50;;;;;;;18.62;68.59;93264.19;4954738;28;20108;-83
2022/08/22 06:07:26;;;;;;;11.63;7.60;;;;;;;19.07;68.18;93332.16;4968324;28;20051;-85
2022/08/22 06:10:04;;;;;;;12.52;7.53;;;;;;;19.03;68.16;93312.50;4961174;28;20115;-82
2022/08/22 06:13:00;;;;;;;11.27;7.68;;;;;;;19.22;67.85;93328.38;4971927;28;20414;-83
2022/08/22 06:15:53;;;;;;;13.43;8.18;;;;;;;18.69;67.92;93263.44;4967904;28;20715;-82
2022/08/22 06:18:23;;;;;;;16.35;7.05;;;;;;;17.47;67.41;93066.63;4971751;28;20046;-81
2022/08/22 06:21:00;;;;;;;13.82;8.30;;;;;;;19.26;67.88;93331.88;4972012;28;20117;-85
2022/08/22 06:23:30;;;;;;;12.00;7.60;;;;;;;18.71;68.88;93278.13;4972716;28;20439;-85
2022/08/22 06:26:00;;;;;;;12.80;8.38;;;;;;;18.58;68.31;93214.16;4969521;28;20049;-83
2022/08/22 06:28:31;;;;;;;16.52;7.53;;;;;;;19.48;67.81;93333.53;4969325;28;20238;-82
2022/08/22 06:31:00;;;;;;;14.68;8.65;;;;;;;18.79;67.71;93279.69;4971056;28;20700;-84
2022/08/22 06:33:32;;;;;;;13.63;8.38;;;;;;;18.86;68.48;93301.28;4954660;28;20082;-82
2022/08/22 06:38:54;;;;;;;10.70;7.32;;;;;;;19.31;67.18;93334.22;4972926;28;20073;-81
2022/08/22 06:41:23;;;;;;;11.60;7.03;;;;;;;19.42;67.49;93336.94;4952854;28;20117;-83
2022/08/22 06:43:51;;;;;;;11.45;7.28;;;;;;;19.03;67.85;93261.31;4952781;28;20039;-82
2022/08/22 06:46:19;;;;;;;11.95;7.22;;;;;;;19.33;67.44;93334.59;4952302;28;20053;-85
2022/08/22 06:48:48;;;;;;;12.48;7.88;;;;;;;18.39;66.93;93167.50;4970943;28;20136;-82
2022/08/22 06:51:17;;;;;;;10.30;7.00;;;;;;;18.72;67.34;93216.94;4941241;28;20546;-82
2022/08/22 06:53:47;;;;;;;9.00;6.65;;;;;;;18.93;66.04;93206.22;4942743;28;20883;-83
2022/08/22 06:56:23;;;;;;;10.38;6.40;;;;;;;18.60;65.48;93157.97;4958553;28;20074;-84
2022/08/22 06:58:53;;;;;;;12.75;6.80;;;;;;;18.64;65.30;93173.00;4966928;28;20101;-82
2022/08/22 07:01:29;;;;;;;9.30;6.00;;;;;;;18.51;65.20;93166.41;4967082;28;20054;-83
2022/08/22 07:04:05;;;;;;;9.23;6.15;;;;;;;18.54;65.63;93176.41;4954126;28;20039;-81
2022/08/22 07:06:42;;;;;;;8.35;5.70;;;;;;;19.59;65.17;93328.94;4961560;28;20122;-79
2022/08/22 07:09:22;;;;;;;10.20;5.53;;;;;;;18.09;63.41;93085.47;4959038;28;21064;-82
2022/08/22 07:11:48;;;;;;;10.93;6.05;;;;;;;19.58;65.17;93330.09;4960342;28;20354;-80
2022/08/22 07:14:16;;;;;;;7.78;5.88;;;;;;;19.51;64.47;93330.06;4954985;28;20038;-84
2022/08/22 07:17:01;;;;;;;7.93;5.18;;;;;;;19.12;63.40;93202.44;4971065;28;20046;-81
2022/08/22 07:19:34;;;;;;;11.50;5.43;;;;;;;18.82;63.70;93157.69;4958361;28;20137;-82
2022/08/22 07:22:14;;;;;;;12.30;6.30;;;;;;;19.24;62.91;93202.88;4956112;28;20046;-81
2022/08/22 07:24:47;;;;;;;9.82;5.95;;;;;;;19.74;61.98;93257.69;4970002;28;20035;-81
2022/08/22 07:27:58;;;;;;;15.55;7.13;;;;;;;20.29;61.40;93341.03;4967034;28;20034;-83
2022/08/22 07:30:33;;;;;;;10.27;6.63;;;;;;;19.16;62.27;93171.66;4957708;28;20414;-83
2022/08/22 07:33:07;;;;;;;9.50;5.80;;;;;;;19.08;62.30;93188.19;4951195;28;20038;-81
2022/08/22 07:35:40;;;;;;;11.67;6.43;;;;;;;19.90;62.07;93283.50;4938700;28;20031;-81
2022/08/22 07:38:22;;;;;;;9.45;6.45;;;;;;;20.03;61.65;93282.00;4931000;28;20274;-81
2022/08/22 07:41:05;;;;;;;9.23;6.40;;;;;;;20.22;62.25;93335.63;4928260;28;20051;-82
2022/08/22 07:43:36;;;;;;;11.35;6.03;;;;;;;18.48;62.93;93081.00;4915776;28;20105;-82
2022/08/22 07:46:22;;;;;;;8.20;6.30;;;;;;;20.33;61.62;93333.72;4921607;28;20043;-82
2022/08/22 07:48:59;;;;;;;6.90;5.22;;;;;;;19.20;61.33;93134.69;4929178;28;20359;-81
2022/08/22 07:51:41;;;;;;;10.65;5.95;;;;;;;20.28;61.75;93317.13;4914565;28;20038;-81
2022/08/22 07:54:10;;;;;;;9.65;7.20;;;;;;;19.75;61.08;93258.44;4929974;28;20625;-82
2022/08/22 07:56:41;;;;;;;9.48;6.28;;;;;;;19.78;61.81;93219.13;4929147;28;20528;-83
2022/08/22 07:59:15;;;;;;;10.43;6.93;;;;;;;20.43;61.72;93319.44;4929133;28;20070;-85
2022/08/22 08:01:55;;;;;;;12.70;6.50;;;;;;;20.19;60.59;93320.19;4946324;28;20120;-84
2022/08/22 08:04:27;;;;;;;10.00;6.82;;;;;;;19.41;62.02;93208.69;4931002;28;20047;-83
2022/08/22 08:06:56;;;;;;;10.85;7.03;;;;;;;19.00;61.60;93111.19;4929946;28;20109;-84
2022/08/22 08:09:25;;;;;;;11.85;6.60;;;;;;;20.15;60.96;93278.91;4930171;28;20075;-83
2022/08/22 08:11:53;;;;;;;8.90;6.03;;;;;;;19.00;60.58;93092.31;4947156;28;20032;-82
2022/08/22 08:14:21;;;;;;;10.85;7.40;;;;;;;20.43;61.17;93311.34;4932572;28;20114;-81
2022/08/22 08:17:04;;;;;;;12.40;7.30;;;;;;;20.77;60.76;93332.53;4929580;28;20114;-79
2022/08/22 08:19:33;;;;;;;12.38;6.25;;;;;;;19.91;60.32;93177.13;4914748;28;20039;-80
2022/08/22 08:21:59;;;;;;;9.55;6.10;;;;;;;19.76;58.60;93122.41;4929097;28;20039;-80
2022/08/22 08:24:30;;;;;;;9.35;6.38;;;;;;;21.10;57.99;93318.56;4930659;28;20058;-81
2022/08/22 08:29:55;;;;;;;8.85;6.43;;;;;;;21.38;58.85;93318.47;4930277;28;20038;-84
2022/08/22 08:32:30;;;;;;;10.50;6.15;;;;;;;20.91;58.41;93240.63;4913020;28;20493;-81
2022/08/22 08:35:07;;;;;;;10.60;6.47;;;;;;;21.38;59.50;93329.28;4910888;28;20039;-83
2022/08/22 08:38:01;;;;;;;9.48;6.53;;;;;;;20.98;57.94;93257.59;4926066;28;20554;-82
2022/08/22 08:40:29;;;;;;;13.48;6.10;;;;;;;21.61;57.96;93328.06;4907524;28;20142;-82
2022/08/22 08:43:35;;;;;;;9.27;6.40;;;;;;;21.68;56.08;93323.38;4935780;28;20506;-80
2022/08/22 08:46:00;;;;;;;;;;;;;;;21.69;55.85;93327.63;4946573;28;20034;-81
2022/08/22 08:49:02;;;;;;;9.52;6.18;;;;;;;21.59;55.53;93320.34;4926111;28;19996;-81
2022/08/22 08:51:52;;;;;;;8.38;6.05;;;;;;;21.46;56.71;93319.97;4924074;28;20137;-84
2022/08/22 08:54:20;;;;;;;11.80;6.35;;;;;;;21.58;56.64;93321.50;4943115;28;20054;-82
2022/08/22 08:57:13;;;;;;;10.35;7.30;;;;;;;21.47;57.11;93320.75;4946661;28;20510;-82
2022/08/22 09:00:19;;;;;;;9.82;6.22;;;;;;;21.05;56.97;93266.84;4962089;28;20101;-81
2022/08/22 09:03:09;;;;;;;11.50;7.22;;;;;;;21.57;57.50;93319.94;4950609;28;20039;-82
2022/08/22 09:06:12;;;;;;;10.55;7.30;;;;;;;21.65;56.93;93315.28;4944162;28;20483;-80
2022/08/22 09:08:52;;;;;;;10.25;6.95;;;;;;;21.82;55.34;93320.59;4948617;28;20070;-82
2022/08/22 09:11:45;;;;;;;9.88;7.55;;;;;;;21.67;54.83;93280.47;4947018;28;20074;-80
2022/08/22 09:14:20;;;;;;;13.18;7.20;;;;;;;21.49;57.54;93323.06;4946410;28;20062;-82
2022/08/22 09:17:04;;;;;;;12.00;7.03;;;;;;;21.38;57.17;93256.25;4950142;28;21261;-82
2022/08/22 09:19:47;;;;;;;10.38;6.70;;;;;;;21.92;57.82;93313.56;4946660;28;20039;-84
2022/08/22 09:22:16;;;;;;;13.68;7.22;;;;;;;21.70;56.46;93263.47;4947894;28;20065;-82
2022/08/22 09:25:16;;;;;;;13.93;7.28;;;;;;;22.15;55.66;93321.16;4943426;28;20130;-82
2022/08/22 09:27:50;;;;;;;8.77;6.45;;;;;;;22.12;56.90;93317.31;4960807;28;20133;-82
2022/08/22 09:30:19;;;;;;;8.60;6.95;;;;;;;21.49;56.63;93212.16;4956758;28;20153;-81
2022/08/22 09:33:11;;;;;;;12.13;6.95;;;;;;;21.99;54.16;93275.63;4960459;28;20047;-82
2022/08/22 09:35:49;;;;;;;10.02;6.03;;;;;;;21.99;53.86;93269.44;4952045;28;20258;-79
2022/08/22 09:38:39;;;;;;;10.70;6.97;;;;;;;22.42;53.97;93319.44;4948376;28;20518;-84
2022/08/22 09:41:30;;;;;;;9.38;7.30;;;;;;;22.22;54.42;93313.78;4950886;28;20055;-82
2022/08/22 09:44:30;;;;;;;9.32;7.13;;;;;;;21.84;55.52;93320.22;4954523;28;20030;-83
2022/08/22 09:47:13;;;;;;;7.75;5.90;;;;;;;21.64;56.04;93316.44;4952093;28;20039;-80
2022/08/22 09:49:43;;;;;;;10.45;6.45;;;;;;;21.50;57.02;93276.69;4951768;28;20043;-82
2022/08/22 09:52:32;;;;;;;12.40;7.55;;;;;;;21.78;58.02;93308.25;4949719;28;20039;-81
2022/08/22 09:55:16;;;;;;;11.38;7.43;;;;;;;21.75;58.55;93306.34;4952505;28;20070;-80
2022/08/22 09:57:59;;;;;;;10.75;7.63;;;;;;;21.75;58.00;93303.63;4956122;28;20122;-80
2022/08/22 10:00:39;;;;;;;14.43;7.78;;;;;;;21.15;58.86;93245.16;4950439;28;20078;-82
2022/08/22 10:03:50;;;;;;;12.45;7.75;;;;;;;20.64;58.43;93166.56;4956735;28;20023;-80
2022/08/22 10:06:41;;;;;;;10.75;8.07;;;;;;;21.59;58.56;93290.56;4953208;28;20043;-81
2022/08/22 10:09:19;;;;;;;12.88;8.02;;;;;;;20.67;59.08;93200.94;4969565;28;20023;-80
2022/08/22 10:11:53;;;;;;;9.85;7.72;;;;;;;21.07;60.38;93273.38;4968131;28;20266;-80
2022/08/22 10:14:54;;;;;;;10.68;7.63;;;;;;;21.05;59.90;93286.53;4939850;28;20039;-81
2022/08/22 10:17:35;;;;;;;10.90;7.22;;;;;;;21.18;59.49;93267.94;4916213;28;20049;-84
2022/08/22 10:20:21;;;;;;;10.70;7.55;;;;;;;19.81;57.74;93061.88;4914409;28;20522;-81
2022/08/22 10:23:19;;;;;;;9.00;7.22;;;;;;;20.59;56.97;93133.41;4944917;28;20057;-81
2022/08/22 10:26:18;;;;;;;;;;;;;;;;;;;;;
2022/08/22 10:29:15;;;;;;;10.43;6.68;;;;;;;21.88;56.36;93280.34;4940689;28;20085;-83
2022/08/22 10:31:51;;;;;;;10.15;6.90;;;;;;;22.02;55.67;93269.41;4957493;28;20051;-84
2022/08/22 10:34:41;;;;;;;9.02;6.68;;;;;;;21.24;54.95;93117.63;4949702;28;20124;-83
2022/08/22 10:37:37;;;;;;;13.05;7.07;;;;;;;22.26;54.67;93268.47;4947122;28;20874;-84
2022/08/22 10:40:21;;;;;;;;;;;;;;;22.01;54.05;93267.88;4936700;28;20047;-81
2022/08/22 10:42:51;;;;;;;9.15;6.65;;;;;;;21.72;55.31;93175.28;4943206;28;20006;-84
2022/08/22 10:45:32;;;;;;;11.23;7.60;;;;;;;22.45;54.87;93253.59;4949193;28;20046;-82
2022/08/22 10:47:57;;;;;;;11.15;8.05;;;;;;;22.58;54.32;93256.59;4942267;28;20054;-80
2022/08/22 10:50:30;;;;;;;9.77;7.38;;;;;;;22.14;53.97;93255.41;4946037;28;21004;-80
2022/08/22 10:53:29;;;;;;;10.15;7.65;;;;;;;21.34;54.69;93117.56;4942697;28;20055;-84
2022/08/22 10:56:18;;;;;;;10.68;6.82;;;;;;;21.46;55.38;93111.66;4949431;28;20115;-82
2022/08/22 10:59:15;;;;;;;10.73;6.93;;;;;;;22.52;55.70;93267.09;4919100;28;20141;-82
2022/08/22 11:01:55;;;;;;;10.23;7.43;;;;;;;20.81;54.12;92992.81;4951845;28;20407;-83
2022/08/22 11:04:59;;;;;;;9.27;6.40;;;;;;;22.16;57.14;93209.72;4945818;28;20473;-84
2022/08/22 11:07:43;;;;;;;11.32;6.82;;;;;;;22.08;55.55;93164.16;4947701;28;20463;-84
2022/08/22 11:10:21;;;;;;;10.35;7.47;;;;;;;22.42;57.80;93210.31;4955619;28;20055;-81
2022/08/22 11:13:03;;;;;;;12.90;7.22;;;;;;;21.72;57.86;93158.28;4946195;28;20415;-82
2022/08/22 11:15:47;;;;;;;11.68;7.40;;;;;;;22.43;55.96;93247.06;4950539;28;20402;-83
2022/08/22 11:18:32;;;;;;;9.07;6.82;;;;;;;22.09;52.97;93150.22;4960603;28;20175;-80
2022/08/22 11:21:00;;;;;;;8.90;6.53;;;;;;;22.85;52.75;93235.78;4961004;28;20615;-81
2022/08/22 11:23:43;;;;;;;10.90;7.28;;;;;;;22.94;55.03;93238.03;4943551;28;21069;-81
2022/08/22 11:26:55;;;;;;;9.48;7.82;;;;;;;22.77;51.81;93182.81;4940261;28;20077;-81
2022/08/22 11:29:32;;;;;;;7.68;6.38;;;;;;;22.87;52.70;93192.81;4944620;28;20051;-81
2022/08/22 11:32:34;;;;;;;9.43;7.20;;;;;;;23.32;54.50;93246.88;4939521;28;20187;-81
2022/08/22 11:35:30;;;;;;;14.52;6.43;;;;;;;23.33;52.49;93229.41;4943019;28;20431;-82
2022/08/22 11:38:12;;;;;;;10.13;7.28;;;;;;;23.40;53.41;93234.75;4944709;28;20129;-79
2022/08/22 11:40:47;;;;;;;12.35;6.53;;;;;;;23.42;53.64;93241.31;4949356;28;20047;-80
2022/08/22 11:43:58;;;;;;;8.43;6.22;;;;;;;23.48;53.71;93249.75;4954693;28;20550;-80
2022/08/22 11:46:30;;;;;;;10.88;6.78;;;;;;;23.52;53.25;93236.94;4954448;28;20508;-81
2022/08/22 11:49:22;;;;;;;10.95;7.45;;;;;;;23.56;53.76;93238.44;4967581;28;20073;-81
2022/08/22 11:52:18;;;;;;;15.23;8.23;;;;;;;23.55;55.49;93238.84;4950217;28;20042;-81
2022/08/22 11:54:44;;;;;;;11.38;8.75;;;;;;;23.45;57.05;93237.03;4948659;28;20043;-80
2022/08/22 11:57:27;;;;;;;8.15;6.38;;;;;;;23.43;57.30;93233.94;4944036;28;20043;-82
2022/08/22 12:00:08;;;;;;;9.23;6.85;;;;;;;23.29;57.66;93213.19;4960746;28;20030;-81
2022/08/22 12:03:13;;;;;;;10.70;8.00;;;;;;;23.41;59.40;93230.88;4950111;28;20019;-83
2022/08/22 12:05:51;;;;;;;9.15;7.00;;;;;;;23.24;61.59;93226.44;4946084;28;20254;-81
2022/08/22 12:08:24;;;;;;;8.90;6.78;;;;;;;22.60;61.68;93146.63;4944930;28;20066;-81
2022/08/22 12:11:08;;;;;;;8.50;6.60;;;;;;;23.12;62.01;93225.78;4947591;28;20049;-81
2022/08/22 12:13:58;;;;;;;10.75;7.53;;;;;;;23.20;63.70;93220.28;4955110;28;20561;-79
2022/08/22 12:16:26;;;;;;;15.32;8.13;;;;;;;23.33;61.54;93215.84;4950416;28;20050;-81
2022/08/22 12:19:21;;;;;;;12.20;6.30;;;;;;;23.38;59.98;93210.75;4951118;28;20042;-80
2022/08/22 12:22:08;;;;;;;9.05;6.50;;;;;;;23.00;60.05;93158.56;4955054;28;20047;-81
2022/08/22 12:24:48;;;;;;;9.57;6.80;;;;;;;23.36;60.41;93209.63;4934351;28;20046;-80
2022/08/22 12:27:14;;;;;;;9.32;6.90;;;;;;;23.34;60.93;93214.69;4943551;28;20054;-79
2022/08/22 12:30:17;;;;;;;11.77;6.45;;;;;;;23.29;59.47;93209.72;4952786;28;20027;-79
2022/08/22 12:32:54;;;;;;;8.85;7.32;;;;;;;23.33;59.83;93196.84;4953267;28;20051;-80
2022/08/22 12:35:31;;;;;;;8.65;6.70;;;;;;;22.89;60.24;93130.78;4946376;28;20043;-81
2022/08/22 12:38:27;;;;;;;10.48;7.75;;;;;;;23.28;60.06;93183.75;4948655;28;20325;-79
2022/08/22 12:41:05;;;;;;;9.30;6.90;;;;;;;23.37;60.12;93175.88;4947736;28;20073;-79
2022/08/22 12:43:52;;;;;;;10.82;7.28;;;;;;;23.30;60.67;93173.28;4947921;28;20496;-80
2022/08/22 12:46:37;;;;;;;9.38;7.05;;;;;;;23.28;60.75;93172.91;4948078;28;20097;-79